Station DILA1 - 8735180 - Dauphin Island, AL Image indicating link to RSS feed of recent meteorological observations for station DILA1


Conditions at DILA1 as of
1330 GMT on 04/16/2024:
     

Click on the graph icon in the table below to see a time series plot of the last five days of that observation.

5-day plot - Wind Direction Wind Direction (WDIR): SE ( 130 deg true )
5-day plot - Wind Speed Wind Speed (WSPD): 13.0 kts
5-day plot - Wind Gust Wind Gust (GST): 14.0 kts
5-day plot - Atmospheric Pressure Atmospheric Pressure (PRES):30.07 in
5-day plot - Air Temperature Air Temperature (ATMP): 71.6 °F
5-day plot - Water Temperature Water Temperature (WTMP): 71.6 °F
5-day plot - Wind Speed at 10 Meters Wind Speed at 10 meters (WSPD10M): 13.6 kts
5-day plot - Wind Speed at 20 Meters Wind Speed at 20 meters (WSPD20M): 15.5 kts
5-day plot -  Wind Speed, Wind Gust and Atmospheric Pressure Combined plot of Wind Speed, Gust, and Air Pressure
NOS Water Level Observation Network Water Level
Previous observations
TIME
(GMT)
5-day plot - Wind Direction
WDIR
 
5-day plot - Wind Speed
WSPD
kts
5-day plot - Wind Gust
GST
kts
5-day plot - Wave Height
WVHT
ft
5-day plot - Dominant Wave Period
DPD
sec
5-day plot - Average Wave Period
APD
sec
5-day plot - Mean Wave Direction
MWD
 
5-day plot - Atmospheric Pressure
PRES
in
5-day plot - Pressure Tendency
PTDY
in
5-day plot - Air Temperature
ATMP
°F
5-day plot - Water Temperature
WTMP
°F
5-day plot - Dew Point
DEWP
°F
5-day plot - Salinity
SAL
psu
5-day plot - Visibility
VIS
nmi
5-day plot - Tide (above MLLW)
TIDE
ft
2024-04-16 1324 SE 12.0 13.0----30.07- 71.8 71.4----
2024-04-16 1318 SE 12.0 13.0----30.07- 71.8 71.4----
2024-04-16 1312 SE 11.1 13.0----30.07- 71.8 71.2----
2024-04-16 1306 SE 12.0 14.0----30.06- 71.6 71.2----
2024-04-16 1300 SE 12.0 14.0----30.06+0.03 71.6 71.2----
2024-04-16 1254 SE 12.0 13.0----30.06- 71.6 71.1----
2024-04-16 1248 SE 12.0 13.0----30.06- 71.6 71.1----
2024-04-16 1242 SE 12.0 13.0----30.06- 71.6 71.2----
2024-04-16 1236 SE 12.0 14.0----30.06- 71.6 71.2----
2024-04-16 1230 SE 12.0 13.0----30.06- 71.4 71.4----
2024-04-16 1224 SE 9.9 11.1----30.06- 71.2 71.4----
2024-04-16 1218SSE 9.9 11.1----30.06- 71.1 71.6----
2024-04-16 1212SSE 9.9 12.0----30.06- 71.1 71.6----
2024-04-16 1206SSE 11.1 12.0----30.06- 70.9 71.6----
2024-04-16 1200SSE 11.1 12.0----30.06+0.03 70.9 71.6----
2024-04-16 1154SSE 9.9 12.0----30.05- 70.9 71.6----
2024-04-16 1148SSE 11.1 12.0----30.05- 70.7 71.1----
2024-04-16 1142SSE 9.9 11.1----30.06- 70.9 71.1----
2024-04-16 1136SSE 8.9 9.9----30.06- 70.7 70.9----
2024-04-16 1130SSE 8.9 11.1----30.06- 70.7 70.7----
2024-04-16 1124SSE 9.9 11.1----30.06- 70.7 70.9----
2024-04-16 1118SSE 8.9 11.1----30.05- 70.7 70.9----
2024-04-16 1112SSE 9.9 11.1----30.05- 70.7 71.1----
2024-04-16 1106 SE 9.9 12.0----30.04- 70.5 70.5----
2024-04-16 1100 SE 11.1 12.0----30.04+0.01 70.5 70.3----
2024-04-16 1054 SE 11.1 12.0----30.03- 70.5 70.7----
2024-04-16 1048SSE 9.9 11.1----30.04- 70.7 70.3----
2024-04-16 1042SSE 8.9 11.1----30.04- 70.7 70.7----
2024-04-16 1036SSE 9.9 11.1----30.03- 70.7 70.7----
2024-04-16 1030SSE 9.9 12.0----30.03- 70.9 70.3----
2024-04-16 1024SSE 9.9 11.1----30.03- 70.9 70.5----
2024-04-16 1018 S 9.9 9.9----30.04- 70.9 70.5----
2024-04-16 1012 S 8.9 9.9----30.04- 70.9 70.5----
2024-04-16 1006 S 9.9 11.1----30.03- 70.9 70.3----
2024-04-16 1000 S 8.9 9.9----30.03+0.01 70.9 70.3----
2024-04-16 0954 S 8.0 8.9----30.04- 70.9 70.3----
2024-04-16 0948 S 7.0 9.9----30.04- 70.9 70.3----
2024-04-16 0942 S 8.0 9.9----30.03- 70.9 70.2----
2024-04-16 0936 S 7.0 8.9----30.03- 70.9 70.2----
2024-04-16 0930 S 6.0 7.0----30.04- 70.7 70.2----
2024-04-16 0924 S 6.0 7.0----30.04- 70.7 70.2----
2024-04-16 0918 S 5.1 7.0----30.03- 70.7 70.2----
2024-04-16 0912 S 6.0 7.0----30.03- 70.7 70.2----
2024-04-16 0906 S 6.0 8.0----30.03- 70.7 70.2----
2024-04-16 0900 S 6.0 8.0----30.03-0.01 70.7 70.2----
2024-04-16 0854 S 7.0 8.9----30.03- 70.9 70.3----
2024-04-16 0848 S 7.0 8.9----30.03- 70.9 70.3----
2024-04-16 0842 S 8.9 9.9----30.03- 70.9 71.1----
2024-04-16 0836 S 8.0 9.9----30.03- 70.9 70.7----
2024-04-16 0830 S 8.9 9.9----30.03- 70.9 70.9----
2024-04-16 0824 S 8.0 9.9----30.03- 71.1 71.1----
2024-04-16 0818SSE 9.9 12.0----30.03- 70.9 71.1----
2024-04-16 0812SSE 9.9 12.0----30.02- 70.9 72.1----
2024-04-16 0806 S 9.9 12.0----30.02- 71.1 72.1----
2024-04-16 0800 S 11.1 12.0----30.02-0.04 71.1 72.1----
2024-04-16 0754 S 11.1 13.0----30.02- 71.1 72.1----
2024-04-16 0748 S 11.1 13.0----30.02- 71.1 72.3----
2024-04-16 0742 S 11.1 13.0----30.02- 71.1 72.5----
2024-04-16 0736 S 12.0 14.0----30.02- 71.1 72.5----
2024-04-16 0730 S 12.0 13.0----30.02- 71.1 72.5----
2024-04-16 0724 S 13.0 14.0----30.02- 71.2 72.5----
2024-04-16 0718 S 12.0 14.0----30.02- 71.2 72.5----
2024-04-16 0712 S 12.0 15.0----30.02- 71.2 72.5----
2024-04-16 0706 S 12.0 15.0----30.02- 71.2 72.5----
2024-04-16 0700 S 12.0 14.0----30.03-0.04 71.2 72.5----
2024-04-16 0654 S 12.0 14.0----30.03- 71.2 72.5----
2024-04-16 0648 S 12.0 14.0----30.03- 71.4 72.5----
2024-04-16 0642 S 11.1 14.0----30.03- 71.2 72.5----
2024-04-16 0636 S 13.0 14.0----30.04- 71.2 72.5----
2024-04-16 0630 S 12.0 14.0----30.04- 71.4 72.5----
2024-04-16 0624 S 11.1 14.0----30.04- 71.2 72.5----
2024-04-16 0618 S 13.0 15.0----30.04- 71.2 72.3----
2024-04-16 0612 S 13.0 15.9----30.04- 71.2 72.3----
2024-04-16 0606 S 14.0 17.1----30.04- 71.4 72.3----
2024-04-16 0600 S 13.0 15.0----30.04-0.03 71.4 72.3----
2024-04-16 0554 S 14.0 17.1----30.04- 71.4 72.3----
2024-04-16 0548 S 12.0 15.9----30.04- 71.4 72.3----
2024-04-16 0542 S 13.0 15.9----30.05- 71.4 72.3----
2024-04-16 0536 S 12.0 15.9----30.05- 71.4 72.3----
2024-04-16 0530 S 13.0 15.0----30.05- 71.4 72.5----
2024-04-16 0524 S 13.0 14.0----30.05- 71.4 72.3----
2024-04-16 0518 S 12.0 14.0----30.05- 71.2 72.1----
2024-04-16 0512 S 12.0 14.0----30.06- 71.4 72.1----
2024-04-16 0506 S 12.0 14.0----30.06- 71.6 72.3----
2024-04-16 0500 S 13.0 15.9----30.06+0.00 71.6 72.1----
2024-04-16 0454 S 14.0 15.0----30.06- 71.6 72.3----
2024-04-16 0448 S 13.0 15.0----30.06- 71.6 72.3----
2024-04-16 0442SSE 13.0 14.0----30.06- 71.6 72.3----
2024-04-16 0436SSE 13.0 15.0----30.06- 71.6 72.3----
2024-04-16 0430SSE 13.0 14.0----30.06- 71.6 72.3----
2024-04-16 0424 S 14.0 15.0----30.06- 71.6 72.3----
2024-04-16 0418SSE 12.0 14.0----30.06- 71.6 72.3----
2024-04-16 0412SSE 13.0 14.0----30.06- 71.6 72.3----
2024-04-16 0406SSE 12.0 14.0----30.06- 71.4 72.3----
2024-04-16 0400SSE 11.1 14.0----30.06+0.00 71.6 72.3----
2024-04-16 0354SSE 12.0 13.0----30.07- 71.6 72.1----
2024-04-16 0348SSE 12.0 13.0----30.07- 71.6 72.1----
2024-04-16 0342SSE 12.0 14.0----30.07- 71.6 72.1----
2024-04-16 0336SSE 11.1 13.0----30.07- 71.6 72.0----
2024-04-16 0330SSE 11.1 13.0----30.07- 71.4 72.0----
2024-04-16 0324SSE 12.0 14.0----30.07- 71.4 71.6----
2024-04-16 0318SSE 12.0 13.0----30.07- 71.4 71.4----
2024-04-16 0312SSE 12.0 13.0----30.07- 71.6 71.4----
2024-04-16 0306SSE 12.0 14.0----30.07- 71.6 71.2----
2024-04-16 0300SSE 13.0 14.0----30.07+0.02 71.6 71.2----
2024-04-16 0254SSE 12.0 13.0----30.07- 71.6 71.4----
2024-04-16 0248SSE 11.1 12.0----30.07- 71.6 71.6----
2024-04-16 0242SSE 11.1 12.0----30.08- 71.6 71.6----
2024-04-16 0236SSE 12.0 13.0----30.08- 71.6 71.6----
2024-04-16 0230SSE 12.0 14.0----30.07-- 71.6----
2024-04-16 0224SSE 12.0 13.0----30.07-- 71.4----
2024-04-16 0218 SE 12.0 13.0----30.07- 71.6 71.6----
2024-04-16 0212SSE 12.0 13.0----30.06- 71.6 71.8----
2024-04-16 0206SSE 12.0 13.0----30.06- 71.6 71.6----
2024-04-16 0200 SE 11.1 13.0----30.06+0.01 71.8 72.3----
2024-04-16 0154 SE 11.1 12.0----30.06- 71.8 72.0----
2024-04-16 0148SSE 9.9 12.0----30.06- 71.8 71.8----
2024-04-16 0142SSE 11.1 12.0----30.06- 71.8 72.3----
2024-04-16 0136 SE 9.9 12.0----30.06- 71.8 72.1----
2024-04-16 0130 SE 8.9 11.1----30.07- 71.8 72.1----
2024-04-16 0124 SE 8.9 9.9----30.06- 71.8 71.4----
2024-04-16 0118 SE 9.9 11.1----30.06- 71.8 70.9----
2024-04-16 0112 SE 8.9 11.1----30.06- 71.6 71.1----
2024-04-16 0106SSE 8.9 9.9----30.06- 71.8 70.9----
2024-04-16 0100 SE 9.9 11.1----30.06+0.00- 71.1----
2024-04-16 0054SSE 9.9 11.1----30.06-- 71.4----
2024-04-16 0048 SE 9.9 11.1----30.06- 71.8 71.8----
2024-04-16 0042SSE 8.9 9.9----30.06- 71.8 72.1----
2024-04-16 0036SSE 9.9 11.1----30.06- 72.0 71.2----
2024-04-16 0030SSE 11.1 11.1----30.05- 72.0 72.0----
2024-04-16 0024SSE 9.9 11.1----30.05- 72.0 71.8----
2024-04-16 0018SSE 9.9 12.0----30.05-- 72.0----
2024-04-16 0012SSE 9.9 11.1----30.05-- 72.1----
2024-04-16 0006SSE 9.9 12.0----30.05-- 72.3----
2024-04-16 0000SSE 8.9 11.1----30.05-0.01 72.0 72.7----
2024-04-15 2354SSE 9.9 11.1----30.05- 72.0 72.3----
2024-04-15 2348SSE 9.9 11.1----30.05- 72.0 73.0----
2024-04-15 2342SSE 8.9 11.1----30.05- 72.1 73.9----
2024-04-15 2336SSE 8.9 11.1----30.05- 72.1 73.8----
2024-04-15 2330SSE 8.9 11.1----30.05- 72.3 73.9----
2024-04-15 2324SSE 8.0 9.9----30.05- 72.3 74.3----
2024-04-15 2318SSE 8.0 9.9----30.05- 72.5 74.5----
2024-04-15 2300SSE 8.0 8.9----30.05-0.03 72.5 74.1----
2024-04-15 2254 S 8.0 8.9----30.05- 72.5 74.3----
2024-04-15 2248SSE 8.9 8.9----30.05- 72.5 74.3----
2024-04-15 2242 S 8.0 9.9----30.05- 72.5 73.9----
2024-04-15 2236 S 8.9 9.9----30.05- 72.5 74.3----
2024-04-15 2230 S 8.9 9.9----30.05-- 74.3----
2024-04-15 2224 S 8.0 9.9----30.05-- 73.9----
2024-04-15 2218 S 8.0 8.9----30.06- 72.5 73.9----
2024-04-15 2212 S 8.0 9.9----30.06- 72.5 73.9----
2024-04-15 2206 S 8.9 9.9----30.06- 72.5 74.5----
2024-04-15 2200 S 8.9 11.1----30.05-0.04 72.5 74.3----
2024-04-15 2154SSE 8.9 11.1----30.05- 72.3 74.3----
2024-04-15 2148SSE 8.9 11.1----30.05- 72.3 74.1----
2024-04-15 2142SSE 9.9 11.1----30.05- 72.3 74.1----
2024-04-15 2136SSE 8.9 9.9----30.05- 72.3 74.1----
2024-04-15 2130SSE 8.0 9.9----30.06- 72.5 73.8----
2024-04-15 2124SSE 8.9 9.9----30.06- 72.5 74.5----
2024-04-15 2118 S 8.9 9.9------ 72.5 73.6----
2024-04-15 2112 S 8.0 9.9------ 73.0 72.9----
2024-04-15 2106 S 8.9 11.1------ 72.5 74.5----
2024-04-15 2100 S 9.9 9.9----30.06-0.04 72.1 73.8----
2024-04-15 2054 S 9.9 11.1----30.06- 72.3 74.1----
2024-04-15 2048 S 8.9 11.1----30.06- 72.5 73.0----
2024-04-15 2042 S 9.9 11.1----30.07- 72.1 73.9----
2024-04-15 2036 S 8.9 9.9----30.07- 72.1 74.8----
2024-04-15 2030 S 8.9 9.9----30.07- 72.7 74.3----
2024-04-15 2024 S 8.9 9.9----30.07- 72.5 74.7----
2024-04-15 2018 S 9.9 11.1----30.07- 72.0 74.7----
2024-04-15 2012 S 9.9 9.9----30.07- 72.0 75.0----
2024-04-15 2006 S 8.9 9.9----30.08- 72.1 74.8----
2024-04-15 2000SSE 9.9 11.1----30.08-0.04 72.0 74.8----
2024-04-15 1954 S 8.9 12.0----30.08- 72.0 75.0----
2024-04-15 1948SSE 9.9 11.1----30.08- 72.0 75.0----
2024-04-15 1942 S 8.0 11.1----30.08- 72.3 74.8----
2024-04-15 1936 S 8.9 9.9----30.09- 72.0 74.1----
2024-04-15 1930 S 9.9 11.1----30.09- 71.8 73.0----
2024-04-15 1924 S 8.9 9.9----30.09- 71.8 72.0----
2024-04-15 1918 S 8.9 9.9----30.09- 72.1 72.3----
2024-04-15 1912 S 9.9 11.1----30.09- 72.0 72.9----
2024-04-15 1906 S 8.0 9.9----30.09- 72.1 71.4----
2024-04-15 1900 S 8.9 11.1----30.10-0.02 71.8 71.1----
2024-04-15 1854 S 8.9 9.9----30.10- 72.0 72.3----
2024-04-15 1848 S 8.9 11.1----30.10- 72.1 71.8----
2024-04-15 1842 S 8.0 9.9----30.10- 72.1 71.8----
2024-04-15 1836 S 8.9 9.9----30.10- 71.8 71.8----
2024-04-15 1830 S 8.0 8.9----30.10- 72.0 71.8----
2024-04-15 1824 S 8.0 8.9----30.10- 72.0 72.0----
2024-04-15 1818 S 8.0 9.9----30.11- 71.6 71.8----
2024-04-15 1812 S 8.0 8.9----30.10- 71.8 72.0----
2024-04-15 1806SSE 8.0 8.9----30.10- 71.4 71.8----
2024-04-15 1800SSE 7.0 8.9----30.10-0.02 71.4 72.0----
2024-04-15 1754SSE 8.0 8.9----30.10- 71.2 71.8----
2024-04-15 1748SSE 7.0 8.0----30.10- 71.2 71.8----
2024-04-15 1742SSE 7.0 8.0----30.10- 71.2 71.6----
2024-04-15 1736 S 7.0 8.0----30.11- 71.2 71.6----
2024-04-15 1730SSE 7.0 8.0----30.11- 71.2 71.4----
2024-04-15 1724SSE 7.0 8.0----30.11- 71.1 71.4----
2024-04-15 1718SSE 7.0 7.0----30.11- 71.1 71.2----
2024-04-15 1712SSE 6.0 7.0----30.11- 71.1 71.2----
2024-04-15 1706SSE 6.0 7.0----30.11- 71.1 71.2----
2024-04-15 1700SSE 6.0 7.0----30.11+0.02 71.1 71.2----
2024-04-15 1654SSE 6.0 6.0----30.11- 71.1 71.1----
2024-04-15 1648SSE 6.0 6.0----30.11- 70.9 70.9----
2024-04-15 1642SSE 5.1 6.0----30.11- 70.9 70.9----
2024-04-15 1636SSE 6.0 6.0----30.12- 70.9 71.1----
2024-04-15 1630SSE 6.0 7.0----30.12- 70.9 71.1----
2024-04-15 1624SSE 5.1 6.0----30.11- 70.9 70.9----
2024-04-15 1618SSE 6.0 7.0----30.11- 70.7 70.9----
2024-04-15 1612SSE 5.1 6.0----30.12- 70.7 70.9----
2024-04-15 1606SSE 5.1 6.0----30.12- 70.7 70.9----
2024-04-15 1600SSE 5.1 6.0----30.12+0.03 70.7 70.7----
2024-04-15 1554SSE 5.1 6.0----30.12- 70.7 70.7----
2024-04-15 1548SSE 5.1 6.0----30.11- 70.5 70.7----
2024-04-15 1542 SE 5.1 6.0----30.11- 70.7 70.9----
2024-04-15 1536 SE 5.1 6.0----30.11- 70.7 71.4----
2024-04-15 1530 SE 5.1 5.1----30.12- 70.9 70.5----
2024-04-15 1524 SE 4.1 5.1----30.12- 71.1 70.5----
2024-04-15 1518 SE 4.1 5.1----30.12- 71.1 70.7----
2024-04-15 1512 SE 4.1 5.1----30.12- 71.2 70.5----
2024-04-15 1506SSE 4.1 5.1----30.12- 71.2 70.5----
2024-04-15 1500SSE 4.1 5.1----30.12+0.05 71.1 70.5----
2024-04-15 1454SSE 5.1 5.1----30.11- 71.1 70.5----
2024-04-15 1448SSE 5.1 5.1----30.11- 70.9 70.5----
2024-04-15 1442SSE 4.1 5.1----30.11- 71.1 70.3----
2024-04-15 1436SSE 5.1 5.1----30.11- 71.1 70.3----
2024-04-15 1430 S 5.1 5.1----30.11-- 70.3----
2024-04-15 1424 S 5.1 5.1----30.10-- 70.2----
2024-04-15 1418 S 5.1 6.0----30.10- 71.2 70.3----
2024-04-15 1412 S 5.1 6.0----30.10- 71.6 70.2----
2024-04-15 1406 S 6.0 7.0----30.10- 71.1 70.2----
2024-04-15 1400 S 5.1 7.0----30.09+0.04 71.2 70.2----
2024-04-15 1354 S 5.1 6.0----30.09- 71.6 70.2----